sensor_id;sensor_type;location;lat;lon;timestamp;P1;durP1;ratioP1;P2;durP2;ratioP2
1721;SDS011;858;53.190;8.596;2023-04-15T00:02:20;8.63;;;7.63;;
1721;SDS011;858;53.190;8.596;2023-04-15T00:04:50;9.77;;;7.40;;
1721;SDS011;858;53.190;8.596;2023-04-15T00:07:16;11.30;;;7.77;;
1721;SDS011;858;53.190;8.596;2023-04-15T00:09:44;9.30;;;7.72;;
1721;SDS011;858;53.190;8.596;2023-04-15T00:12:10;10.25;;;8.25;;
1721;SDS011;858;53.190;8.596;2023-04-15T00:14:36;10.63;;;8.32;;
1721;SDS011;858;53.190;8.596;2023-04-15T00:17:03;9.73;;;8.43;;
1721;SDS011;858;53.190;8.596;2023-04-15T00:19:29;9.95;;;7.97;;
1721;SDS011;858;53.190;8.596;2023-04-15T00:21:58;11.23;;;8.32;;
1721;SDS011;858;53.190;8.596;2023-04-15T00:24:24;10.95;;;8.50;;
1721;SDS011;858;53.190;8.596;2023-04-15T00:26:51;10.18;;;8.10;;
1721;SDS011;858;53.190;8.596;2023-04-15T00:29:17;11.32;;;8.10;;
1721;SDS011;858;53.190;8.596;2023-04-15T00:31:44;12.35;;;9.57;;
1721;SDS011;858;53.190;8.596;2023-04-15T00:34:10;11.00;;;9.27;;
1721;SDS011;858;53.190;8.596;2023-04-15T00:36:37;12.10;;;9.32;;
1721;SDS011;858;53.190;8.596;2023-04-15T00:39:05;13.00;;;8.77;;
1721;SDS011;858;53.190;8.596;2023-04-15T00:41:31;11.07;;;9.30;;
1721;SDS011;858;53.190;8.596;2023-04-15T00:43:58;11.13;;;8.57;;
1721;SDS011;858;53.190;8.596;2023-04-15T00:46:26;13.48;;;9.85;;
1721;SDS011;858;53.190;8.596;2023-04-15T00:48:53;11.93;;;9.40;;
1721;SDS011;858;53.190;8.596;2023-04-15T00:51:20;13.00;;;9.40;;
1721;SDS011;858;53.190;8.596;2023-04-15T00:53:47;12.18;;;9.85;;
1721;SDS011;858;53.190;8.596;2023-04-15T00:56:15;12.68;;;9.98;;
1721;SDS011;858;53.190;8.596;2023-04-15T00:58:41;12.10;;;9.20;;
1721;SDS011;858;53.190;8.596;2023-04-15T01:01:08;13.30;;;10.82;;
1721;SDS011;858;53.190;8.596;2023-04-15T01:03:35;11.75;;;9.75;;
1721;SDS011;858;53.190;8.596;2023-04-15T01:06:01;11.20;;;9.20;;
1721;SDS011;858;53.190;8.596;2023-04-15T01:08:28;14.15;;;10.90;;
1721;SDS011;858;53.190;8.596;2023-04-15T01:10:55;13.20;;;10.05;;
1721;SDS011;858;53.190;8.596;2023-04-15T01:13:23;13.20;;;10.05;;
1721;SDS011;858;53.190;8.596;2023-04-15T01:15:50;14.15;;;9.32;;
1721;SDS011;858;53.190;8.596;2023-04-15T01:20:44;14.88;;;9.90;;
1721;SDS011;858;53.190;8.596;2023-04-15T01:23:10;15.73;;;11.25;;
1721;SDS011;858;53.190;8.596;2023-04-15T01:25:38;17.20;;;12.23;;
1721;SDS011;858;53.190;8.596;2023-04-15T01:28:07;14.32;;;10.88;;
1721;SDS011;858;53.190;8.596;2023-04-15T01:30:33;14.27;;;10.60;;
1721;SDS011;858;53.190;8.596;2023-04-15T01:33:00;14.68;;;11.20;;
1721;SDS011;858;53.190;8.596;2023-04-15T01:35:27;14.25;;;10.52;;
1721;SDS011;858;53.190;8.596;2023-04-15T01:37:54;15.73;;;11.93;;
1721;SDS011;858;53.190;8.596;2023-04-15T01:40:22;14.75;;;11.73;;
1721;SDS011;858;53.190;8.596;2023-04-15T01:42:50;14.73;;;11.52;;
1721;SDS011;858;53.190;8.596;2023-04-15T01:45:16;14.85;;;11.65;;
1721;SDS011;858;53.190;8.596;2023-04-15T01:47:43;15.75;;;11.45;;
1721;SDS011;858;53.190;8.596;2023-04-15T01:50:09;14.63;;;11.90;;
1721;SDS011;858;53.190;8.596;2023-04-15T01:52:36;16.77;;;12.45;;
1721;SDS011;858;53.190;8.596;2023-04-15T01:55:02;16.80;;;13.35;;
1721;SDS011;858;53.190;8.596;2023-04-15T01:57:30;18.20;;;13.88;;
1721;SDS011;858;53.190;8.596;2023-04-15T02:00:00;17.70;;;13.20;;
1721;SDS011;858;53.190;8.596;2023-04-15T02:02:26;17.05;;;13.40;;
1721;SDS011;858;53.190;8.596;2023-04-15T02:04:53;14.70;;;11.97;;
1721;SDS011;858;53.190;8.596;2023-04-15T02:07:19;22.38;;;15.10;;
1721;SDS011;858;53.190;8.596;2023-04-15T02:09:47;21.13;;;14.60;;
1721;SDS011;858;53.190;8.596;2023-04-15T02:12:13;17.85;;;13.60;;
1721;SDS011;858;53.190;8.596;2023-04-15T02:14:40;20.65;;;14.70;;
1721;SDS011;858;53.190;8.596;2023-04-15T02:17:07;18.08;;;13.88;;
1721;SDS011;858;53.190;8.596;2023-04-15T02:19:34;21.35;;;15.93;;
1721;SDS011;858;53.190;8.596;2023-04-15T02:22:01;21.40;;;15.63;;
1721;SDS011;858;53.190;8.596;2023-04-15T02:24:28;19.98;;;15.82;;
1721;SDS011;858;53.190;8.596;2023-04-15T02:26:54;20.20;;;16.13;;
1721;SDS011;858;53.190;8.596;2023-04-15T02:29:21;19.80;;;15.77;;
1721;SDS011;858;53.190;8.596;2023-04-15T02:31:48;19.30;;;14.43;;
1721;SDS011;858;53.190;8.596;2023-04-15T02:34:15;19.10;;;15.13;;
1721;SDS011;858;53.190;8.596;2023-04-15T02:36:42;25.13;;;16.98;;
1721;SDS011;858;53.190;8.596;2023-04-15T02:39:08;22.60;;;16.10;;
1721;SDS011;858;53.190;8.596;2023-04-15T02:41:35;20.88;;;16.05;;
1721;SDS011;858;53.190;8.596;2023-04-15T02:44:01;21.25;;;15.93;;
1721;SDS011;858;53.190;8.596;2023-04-15T02:46:28;19.23;;;15.02;;
1721;SDS011;858;53.190;8.596;2023-04-15T02:48:54;18.88;;;15.07;;
1721;SDS011;858;53.190;8.596;2023-04-15T02:51:22;19.90;;;16.10;;
1721;SDS011;858;53.190;8.596;2023-04-15T02:53:48;21.75;;;16.30;;
1721;SDS011;858;53.190;8.596;2023-04-15T02:56:15;20.85;;;16.33;;
1721;SDS011;858;53.190;8.596;2023-04-15T02:58:43;23.60;;;17.15;;
1721;SDS011;858;53.190;8.596;2023-04-15T03:01:10;23.63;;;17.75;;
1721;SDS011;858;53.190;8.596;2023-04-15T03:03:36;24.00;;;17.80;;
1721;SDS011;858;53.190;8.596;2023-04-15T03:06:02;21.90;;;17.25;;
1721;SDS011;858;53.190;8.596;2023-04-15T03:08:30;23.80;;;17.50;;
1721;SDS011;858;53.190;8.596;2023-04-15T03:10:57;26.80;;;16.70;;
1721;SDS011;858;53.190;8.596;2023-04-15T03:13:24;22.45;;;17.42;;
1721;SDS011;858;53.190;8.596;2023-04-15T03:15:51;26.45;;;18.00;;
1721;SDS011;858;53.190;8.596;2023-04-15T03:18:17;23.58;;;16.85;;
1721;SDS011;858;53.190;8.596;2023-04-15T03:20:44;26.25;;;19.13;;
1721;SDS011;858;53.190;8.596;2023-04-15T03:23:10;22.40;;;15.93;;
1721;SDS011;858;53.190;8.596;2023-04-15T03:25:38;21.60;;;16.10;;
1721;SDS011;858;53.190;8.596;2023-04-15T03:28:04;23.40;;;17.15;;
1721;SDS011;858;53.190;8.596;2023-04-15T03:30:32;22.23;;;15.05;;
1721;SDS011;858;53.190;8.596;2023-04-15T03:32:59;20.40;;;15.20;;
1721;SDS011;858;53.190;8.596;2023-04-15T03:35:25;20.50;;;16.10;;
1721;SDS011;858;53.190;8.596;2023-04-15T03:37:52;20.13;;;15.43;;
1721;SDS011;858;53.190;8.596;2023-04-15T03:40:19;23.77;;;16.35;;
1721;SDS011;858;53.190;8.596;2023-04-15T03:42:47;19.70;;;15.80;;
1721;SDS011;858;53.190;8.596;2023-04-15T03:45:13;21.92;;;17.23;;
1721;SDS011;858;53.190;8.596;2023-04-15T03:47:41;23.77;;;17.08;;
1721;SDS011;858;53.190;8.596;2023-04-15T03:50:08;23.75;;;15.75;;
1721;SDS011;858;53.190;8.596;2023-04-15T03:52:34;22.60;;;17.48;;
1721;SDS011;858;53.190;8.596;2023-04-15T03:55:00;24.80;;;17.38;;
1721;SDS011;858;53.190;8.596;2023-04-15T03:57:27;23.70;;;17.20;;
1721;SDS011;858;53.190;8.596;2023-04-15T03:59:55;25.47;;;18.47;;
1721;SDS011;858;53.190;8.596;2023-04-15T04:02:22;23.63;;;18.40;;
1721;SDS011;858;53.190;8.596;2023-04-15T04:04:48;25.52;;;18.27;;
1721;SDS011;858;53.190;8.596;2023-04-15T04:07:15;24.77;;;17.98;;
1721;SDS011;858;53.190;8.596;2023-04-15T04:09:41;26.08;;;19.48;;
1721;SDS011;858;53.190;8.596;2023-04-15T04:12:08;26.55;;;19.10;;
1721;SDS011;858;53.190;8.596;2023-04-15T04:14:34;27.40;;;19.50;;
1721;SDS011;858;53.190;8.596;2023-04-15T04:17:02;28.38;;;20.38;;
1721;SDS011;858;53.190;8.596;2023-04-15T04:19:28;30.02;;;20.63;;
1721;SDS011;858;53.190;8.596;2023-04-15T04:21:55;31.20;;;21.70;;
1721;SDS011;858;53.190;8.596;2023-04-15T04:24:23;30.60;;;21.47;;
1721;SDS011;858;53.190;8.596;2023-04-15T04:26:49;31.27;;;22.03;;
1721;SDS011;858;53.190;8.596;2023-04-15T04:29:15;34.95;;;22.95;;
1721;SDS011;858;53.190;8.596;2023-04-15T04:31:42;33.70;;;23.50;;
1721;SDS011;858;53.190;8.596;2023-04-15T04:34:09;38.92;;;24.35;;
1721;SDS011;858;53.190;8.596;2023-04-15T04:36:36;34.85;;;23.25;;
1721;SDS011;858;53.190;8.596;2023-04-15T04:39:02;31.63;;;22.05;;
1721;SDS011;858;53.190;8.596;2023-04-15T04:41:28;32.53;;;23.50;;
1721;SDS011;858;53.190;8.596;2023-04-15T04:43:56;32.47;;;23.20;;
1721;SDS011;858;53.190;8.596;2023-04-15T04:46:22;32.17;;;22.87;;
1721;SDS011;858;53.190;8.596;2023-04-15T04:48:48;36.20;;;24.52;;
1721;SDS011;858;53.190;8.596;2023-04-15T04:51:16;33.10;;;23.90;;
1721;SDS011;858;53.190;8.596;2023-04-15T04:53:43;35.42;;;24.25;;
1721;SDS011;858;53.190;8.596;2023-04-15T04:56:10;36.30;;;24.60;;
1721;SDS011;858;53.190;8.596;2023-04-15T04:58:37;35.17;;;23.80;;
1721;SDS011;858;53.190;8.596;2023-04-15T05:01:04;36.85;;;24.35;;
1721;SDS011;858;53.190;8.596;2023-04-15T05:03:30;35.85;;;24.10;;
1721;SDS011;858;53.190;8.596;2023-04-15T05:05:57;34.38;;;24.52;;
1721;SDS011;858;53.190;8.596;2023-04-15T05:08:25;37.40;;;23.90;;
1721;SDS011;858;53.190;8.596;2023-04-15T05:10:53;36.40;;;24.83;;
1721;SDS011;858;53.190;8.596;2023-04-15T05:13:20;36.83;;;23.67;;
1721;SDS011;858;53.190;8.596;2023-04-15T05:15:48;38.08;;;24.55;;
1721;SDS011;858;53.190;8.596;2023-04-15T05:18:15;34.00;;;22.95;;
1721;SDS011;858;53.190;8.596;2023-04-15T05:20:41;33.35;;;22.92;;
1721;SDS011;858;53.190;8.596;2023-04-15T05:23:07;32.28;;;22.77;;
1721;SDS011;858;53.190;8.596;2023-04-15T05:25:35;33.50;;;23.37;;
1721;SDS011;858;53.190;8.596;2023-04-15T05:28:02;34.30;;;23.15;;
1721;SDS011;858;53.190;8.596;2023-04-15T05:30:28;35.08;;;23.05;;
1721;SDS011;858;53.190;8.596;2023-04-15T05:32:54;31.35;;;21.92;;
1721;SDS011;858;53.190;8.596;2023-04-15T05:35:21;33.55;;;23.45;;
1721;SDS011;858;53.190;8.596;2023-04-15T05:37:48;34.53;;;23.15;;
1721;SDS011;858;53.190;8.596;2023-04-15T05:40:15;33.10;;;22.60;;
1721;SDS011;858;53.190;8.596;2023-04-15T05:42:43;34.85;;;23.63;;
1721;SDS011;858;53.190;8.596;2023-04-15T05:45:10;35.83;;;22.95;;
1721;SDS011;858;53.190;8.596;2023-04-15T05:47:36;32.33;;;22.67;;
1721;SDS011;858;53.190;8.596;2023-04-15T05:50:03;37.15;;;23.63;;
1721;SDS011;858;53.190;8.596;2023-04-15T05:52:30;33.65;;;23.02;;
1721;SDS011;858;53.190;8.596;2023-04-15T05:54:56;31.95;;;23.13;;
1721;SDS011;858;53.190;8.596;2023-04-15T05:57:23;36.50;;;22.10;;
1721;SDS011;858;53.190;8.596;2023-04-15T05:59:51;33.10;;;22.05;;
1721;SDS011;858;53.190;8.596;2023-04-15T06:02:17;33.85;;;23.70;;
1721;SDS011;858;53.190;8.596;2023-04-15T06:04:44;35.55;;;23.02;;
1721;SDS011;858;53.190;8.596;2023-04-15T06:07:10;35.97;;;22.83;;
1721;SDS011;858;53.190;8.596;2023-04-15T06:09:36;34.15;;;23.55;;
1721;SDS011;858;53.190;8.596;2023-04-15T06:12:05;35.47;;;24.67;;
1721;SDS011;858;53.190;8.596;2023-04-15T06:14:36;36.50;;;24.20;;
1721;SDS011;858;53.190;8.596;2023-04-15T06:17:03;36.05;;;23.50;;
1721;SDS011;858;53.190;8.596;2023-04-15T06:19:30;36.90;;;24.20;;
1721;SDS011;858;53.190;8.596;2023-04-15T06:21:56;34.70;;;24.70;;
1721;SDS011;858;53.190;8.596;2023-04-15T06:24:23;35.20;;;23.90;;
1721;SDS011;858;53.190;8.596;2023-04-15T06:26:50;36.00;;;24.00;;
1721;SDS011;858;53.190;8.596;2023-04-15T06:29:17;37.05;;;22.60;;
1721;SDS011;858;53.190;8.596;2023-04-15T06:31:45;34.03;;;24.67;;
1721;SDS011;858;53.190;8.596;2023-04-15T06:34:15;35.22;;;24.20;;
1721;SDS011;858;53.190;8.596;2023-04-15T06:36:41;32.63;;;23.20;;
1721;SDS011;858;53.190;8.596;2023-04-15T06:39:09;34.35;;;24.00;;
1721;SDS011;858;53.190;8.596;2023-04-15T06:41:36;33.58;;;23.65;;
1721;SDS011;858;53.190;8.596;2023-04-15T06:44:02;30.83;;;22.90;;
1721;SDS011;858;53.190;8.596;2023-04-15T06:46:28;34.33;;;23.15;;
1721;SDS011;858;53.190;8.596;2023-04-15T06:48:56;30.98;;;22.45;;
1721;SDS011;858;53.190;8.596;2023-04-15T06:51:24;32.20;;;23.73;;
1721;SDS011;858;53.190;8.596;2023-04-15T06:53:51;32.78;;;22.63;;
1721;SDS011;858;53.190;8.596;2023-04-15T06:56:17;31.77;;;21.67;;
1721;SDS011;858;53.190;8.596;2023-04-15T06:58:43;30.10;;;22.13;;
1721;SDS011;858;53.190;8.596;2023-04-15T07:01:09;28.23;;;20.83;;
1721;SDS011;858;53.190;8.596;2023-04-15T07:03:38;29.77;;;21.20;;
1721;SDS011;858;53.190;8.596;2023-04-15T07:06:05;30.05;;;20.55;;
1721;SDS011;858;53.190;8.596;2023-04-15T07:08:34;25.97;;;20.03;;
1721;SDS011;858;53.190;8.596;2023-04-15T07:11:01;28.95;;;20.55;;
1721;SDS011;858;53.190;8.596;2023-04-15T07:13:29;26.80;;;18.65;;
1721;SDS011;858;53.190;8.596;2023-04-15T07:15:56;24.35;;;18.00;;
1721;SDS011;858;53.190;8.596;2023-04-15T07:18:22;23.83;;;18.20;;
1721;SDS011;858;53.190;8.596;2023-04-15T07:20:49;22.30;;;15.98;;
1721;SDS011;858;53.190;8.596;2023-04-15T07:23:16;19.30;;;16.42;;
1721;SDS011;858;53.190;8.596;2023-04-15T07:25:44;20.75;;;15.82;;
1721;SDS011;858;53.190;8.596;2023-04-15T07:28:11;17.35;;;13.80;;
1721;SDS011;858;53.190;8.596;2023-04-15T07:30:38;16.73;;;13.07;;
1721;SDS011;858;53.190;8.596;2023-04-15T07:33:04;19.88;;;13.95;;
1721;SDS011;858;53.190;8.596;2023-04-15T07:35:31;15.32;;;13.35;;
1721;SDS011;858;53.190;8.596;2023-04-15T07:37:57;16.92;;;13.50;;
1721;SDS011;858;53.190;8.596;2023-04-15T07:40:23;16.40;;;13.25;;
1721;SDS011;858;53.190;8.596;2023-04-15T07:42:52;15.38;;;12.70;;
1721;SDS011;858;53.190;8.596;2023-04-15T07:45:18;16.80;;;13.85;;
1721;SDS011;858;53.190;8.596;2023-04-15T07:47:45;16.15;;;13.13;;
1721;SDS011;858;53.190;8.596;2023-04-15T07:50:11;16.25;;;13.48;;
1721;SDS011;858;53.190;8.596;2023-04-15T07:52:38;17.77;;;12.98;;
1721;SDS011;858;53.190;8.596;2023-04-15T07:55:05;16.77;;;13.50;;
1721;SDS011;858;53.190;8.596;2023-04-15T07:57:35;15.57;;;12.30;;
1721;SDS011;858;53.190;8.596;2023-04-15T08:00:03;16.02;;;13.18;;
1721;SDS011;858;53.190;8.596;2023-04-15T08:02:31;13.75;;;12.02;;
1721;SDS011;858;53.190;8.596;2023-04-15T08:04:57;14.05;;;11.68;;
1721;SDS011;858;53.190;8.596;2023-04-15T08:07:26;17.10;;;11.60;;
1721;SDS011;858;53.190;8.596;2023-04-15T08:09:53;13.93;;;11.43;;
1721;SDS011;858;53.190;8.596;2023-04-15T08:12:19;14.85;;;10.73;;
1721;SDS011;858;53.190;8.596;2023-04-15T08:14:45;13.15;;;11.45;;
1721;SDS011;858;53.190;8.596;2023-04-15T08:17:13;13.85;;;11.98;;
1721;SDS011;858;53.190;8.596;2023-04-15T08:19:40;15.93;;;12.20;;
1721;SDS011;858;53.190;8.596;2023-04-15T08:22:07;15.13;;;13.13;;
1721;SDS011;858;53.190;8.596;2023-04-15T08:24:33;13.17;;;10.93;;
1721;SDS011;858;53.190;8.596;2023-04-15T08:26:59;12.73;;;10.23;;
1721;SDS011;858;53.190;8.596;2023-04-15T08:29:30;12.02;;;9.95;;
1721;SDS011;858;53.190;8.596;2023-04-15T08:31:56;13.85;;;9.45;;
1721;SDS011;858;53.190;8.596;2023-04-15T08:34:26;12.55;;;8.98;;
1721;SDS011;858;53.190;8.596;2023-04-15T08:36:52;10.98;;;8.50;;
1721;SDS011;858;53.190;8.596;2023-04-15T08:39:18;10.23;;;8.00;;
1721;SDS011;858;53.190;8.596;2023-04-15T08:41:46;11.90;;;8.90;;
1721;SDS011;858;53.190;8.596;2023-04-15T08:44:13;10.65;;;8.50;;
1721;SDS011;858;53.190;8.596;2023-04-15T08:46:40;12.20;;;8.50;;
1721;SDS011;858;53.190;8.596;2023-04-15T08:49:09;9.27;;;7.50;;
1721;SDS011;858;53.190;8.596;2023-04-15T08:51:37;7.38;;;6.60;;
1721;SDS011;858;53.190;8.596;2023-04-15T08:54:03;9.55;;;7.65;;
1721;SDS011;858;53.190;8.596;2023-04-15T08:56:30;9.90;;;8.05;;
1721;SDS011;858;53.190;8.596;2023-04-15T08:58:57;10.32;;;7.82;;
1721;SDS011;858;53.190;8.596;2023-04-15T09:01:24;9.15;;;7.57;;
1721;SDS011;858;53.190;8.596;2023-04-15T09:03:51;12.07;;;7.63;;
1721;SDS011;858;53.190;8.596;2023-04-15T09:06:18;9.75;;;7.13;;
1721;SDS011;858;53.190;8.596;2023-04-15T09:08:46;9.23;;;7.07;;
1721;SDS011;858;53.190;8.596;2023-04-15T09:11:13;9.45;;;7.10;;
1721;SDS011;858;53.190;8.596;2023-04-15T09:13:39;8.60;;;6.40;;
1721;SDS011;858;53.190;8.596;2023-04-15T09:16:07;8.47;;;5.50;;
1721;SDS011;858;53.190;8.596;2023-04-15T09:18:34;6.60;;;5.90;;
1721;SDS011;858;53.190;8.596;2023-04-15T09:21:03;9.73;;;6.30;;
1721;SDS011;858;53.190;8.596;2023-04-15T09:23:31;7.20;;;5.70;;
1721;SDS011;858;53.190;8.596;2023-04-15T09:25:59;7.50;;;6.03;;
1721;SDS011;858;53.190;8.596;2023-04-15T09:28:26;7.03;;;6.00;;
1721;SDS011;858;53.190;8.596;2023-04-15T09:30:54;7.43;;;6.20;;
1721;SDS011;858;53.190;8.596;2023-04-15T09:33:21;6.28;;;5.50;;
1721;SDS011;858;53.190;8.596;2023-04-15T09:35:58;6.20;;;5.43;;
1721;SDS011;858;53.190;8.596;2023-04-15T09:38:27;7.55;;;6.15;;
1721;SDS011;858;53.190;8.596;2023-04-15T09:40:53;6.82;;;6.00;;
1721;SDS011;858;53.190;8.596;2023-04-15T09:43:21;6.63;;;5.93;;
1721;SDS011;858;53.190;8.596;2023-04-15T09:45:48;7.60;;;5.60;;
1721;SDS011;858;53.190;8.596;2023-04-15T09:48:15;6.75;;;5.82;;
1721;SDS011;858;53.190;8.596;2023-04-15T09:50:43;8.02;;;6.25;;
1721;SDS011;858;53.190;8.596;2023-04-15T09:53:10;6.25;;;5.63;;
1721;SDS011;858;53.190;8.596;2023-04-15T09:55:36;8.55;;;6.00;;
1721;SDS011;858;53.190;8.596;2023-04-15T09:58:07;6.78;;;6.10;;
1721;SDS011;858;53.190;8.596;2023-04-15T10:00:35;6.15;;;5.50;;
1721;SDS011;858;53.190;8.596;2023-04-15T10:03:02;6.05;;;5.45;;
1721;SDS011;858;53.190;8.596;2023-04-15T10:05:30;7.07;;;5.90;;
1721;SDS011;858;53.190;8.596;2023-04-15T10:07:56;7.50;;;6.70;;
1721;SDS011;858;53.190;8.596;2023-04-15T10:10:23;6.55;;;5.78;;
1721;SDS011;858;53.190;8.596;2023-04-15T10:12:49;8.25;;;5.88;;
1721;SDS011;858;53.190;8.596;2023-04-15T10:15:17;9.80;;;7.28;;
1721;SDS011;858;53.190;8.596;2023-04-15T10:17:45;8.77;;;7.95;;
1721;SDS011;858;53.190;8.596;2023-04-15T10:20:13;9.52;;;7.63;;
1721;SDS011;858;53.190;8.596;2023-04-15T10:22:40;9.13;;;7.85;;
1721;SDS011;858;53.190;8.596;2023-04-15T10:25:07;9.43;;;7.60;;
1721;SDS011;858;53.190;8.596;2023-04-15T10:27:34;8.40;;;7.60;;
1721;SDS011;858;53.190;8.596;2023-04-15T10:30:01;8.50;;;7.60;;
1721;SDS011;858;53.190;8.596;2023-04-15T10:32:29;8.40;;;7.50;;
1721;SDS011;858;53.190;8.596;2023-04-15T10:34:57;9.60;;;7.93;;
1721;SDS011;858;53.190;8.596;2023-04-15T10:37:32;9.32;;;8.20;;
1721;SDS011;858;53.190;8.596;2023-04-15T10:40:00;9.40;;;8.20;;
1721;SDS011;858;53.190;8.596;2023-04-15T10:42:32;9.48;;;8.20;;
1721;SDS011;858;53.190;8.596;2023-04-15T10:44:59;9.35;;;8.18;;
1721;SDS011;858;53.190;8.596;2023-04-15T10:47:25;9.18;;;8.18;;
1721;SDS011;858;53.190;8.596;2023-04-15T10:49:55;10.10;;;8.60;;
1721;SDS011;858;53.190;8.596;2023-04-15T10:52:24;12.45;;;9.35;;
1721;SDS011;858;53.190;8.596;2023-04-15T10:55:01;10.48;;;8.95;;
1721;SDS011;858;53.190;8.596;2023-04-15T10:57:27;10.50;;;9.40;;
1721;SDS011;858;53.190;8.596;2023-04-15T11:00:00;11.52;;;9.90;;
1721;SDS011;858;53.190;8.596;2023-04-15T11:02:43;13.63;;;10.40;;
1721;SDS011;858;53.190;8.596;2023-04-15T11:05:11;11.73;;;9.90;;
1721;SDS011;858;53.190;8.596;2023-04-15T11:07:50;11.65;;;9.98;;
1721;SDS011;858;53.190;8.596;2023-04-15T11:13:18;14.35;;;11.20;;
1721;SDS011;858;53.190;8.596;2023-04-15T11:15:47;14.60;;;11.80;;
1721;SDS011;858;53.190;8.596;2023-04-15T11:18:13;16.33;;;11.23;;
1721;SDS011;858;53.190;8.596;2023-04-15T11:20:41;17.90;;;12.80;;
1721;SDS011;858;53.190;8.596;2023-04-15T11:23:10;15.63;;;12.07;;
1721;SDS011;858;53.190;8.596;2023-04-15T11:25:36;15.63;;;12.50;;
1721;SDS011;858;53.190;8.596;2023-04-15T11:28:03;16.45;;;13.20;;
1721;SDS011;858;53.190;8.596;2023-04-15T11:30:30;18.10;;;13.63;;
1721;SDS011;858;53.190;8.596;2023-04-15T11:32:58;18.30;;;14.00;;
1721;SDS011;858;53.190;8.596;2023-04-15T11:35:25;20.50;;;14.23;;
1721;SDS011;858;53.190;8.596;2023-04-15T11:37:52;17.17;;;13.45;;
1721;SDS011;858;53.190;8.596;2023-04-15T11:40:22;18.23;;;13.90;;
1721;SDS011;858;53.190;8.596;2023-04-15T11:43:02;20.02;;;15.05;;
1721;SDS011;858;53.190;8.596;2023-04-15T11:45:29;20.67;;;15.18;;
1721;SDS011;858;53.190;8.596;2023-04-15T11:47:59;20.55;;;15.50;;
1721;SDS011;858;53.190;8.596;2023-04-15T11:50:29;21.63;;;16.70;;
1721;SDS011;858;53.190;8.596;2023-04-15T11:52:58;23.55;;;17.23;;
1721;SDS011;858;53.190;8.596;2023-04-15T11:55:26;25.88;;;17.73;;
1721;SDS011;858;53.190;8.596;2023-04-15T11:58:04;27.50;;;19.25;;
1721;SDS011;858;53.190;8.596;2023-04-15T12:00:32;28.13;;;18.80;;
1721;SDS011;858;53.190;8.596;2023-04-15T12:03:10;27.97;;;19.23;;
1721;SDS011;858;53.190;8.596;2023-04-15T12:05:36;26.48;;;19.30;;
1721;SDS011;858;53.190;8.596;2023-04-15T12:08:24;27.40;;;20.00;;
1721;SDS011;858;53.190;8.596;2023-04-15T12:10:52;30.83;;;20.17;;
1721;SDS011;858;53.190;8.596;2023-04-15T12:13:23;31.65;;;21.13;;
1721;SDS011;858;53.190;8.596;2023-04-15T12:15:54;33.25;;;21.45;;
1721;SDS011;858;53.190;8.596;2023-04-15T12:18:20;30.90;;;20.77;;
1721;SDS011;858;53.190;8.596;2023-04-15T12:20:47;32.08;;;21.17;;
1721;SDS011;858;53.190;8.596;2023-04-15T12:23:18;34.72;;;22.67;;
1721;SDS011;858;53.190;8.596;2023-04-15T12:25:49;36.85;;;23.83;;
1721;SDS011;858;53.190;8.596;2023-04-15T12:28:17;34.20;;;22.65;;
1721;SDS011;858;53.190;8.596;2023-04-15T12:30:47;33.00;;;22.83;;
1721;SDS011;858;53.190;8.596;2023-04-15T12:33:15;39.67;;;25.33;;
1721;SDS011;858;53.190;8.596;2023-04-15T12:35:41;35.58;;;23.30;;
1721;SDS011;858;53.190;8.596;2023-04-15T12:38:08;37.13;;;23.58;;
1721;SDS011;858;53.190;8.596;2023-04-15T12:40:34;39.13;;;24.13;;
1721;SDS011;858;53.190;8.596;2023-04-15T12:43:01;40.65;;;25.35;;
1721;SDS011;858;53.190;8.596;2023-04-15T12:45:28;39.80;;;25.45;;
1721;SDS011;858;53.190;8.596;2023-04-15T12:47:55;41.40;;;27.05;;
1721;SDS011;858;53.190;8.596;2023-04-15T12:50:22;43.50;;;27.23;;
1721;SDS011;858;53.190;8.596;2023-04-15T12:52:48;47.55;;;28.67;;
1721;SDS011;858;53.190;8.596;2023-04-15T12:55:15;47.92;;;28.88;;
1721;SDS011;858;53.190;8.596;2023-04-15T12:57:41;42.70;;;29.23;;
1721;SDS011;858;53.190;8.596;2023-04-15T13:00:08;49.15;;;30.00;;
1721;SDS011;858;53.190;8.596;2023-04-15T13:02:36;45.55;;;30.30;;
1721;SDS011;858;53.190;8.596;2023-04-15T13:05:02;48.95;;;30.33;;
1721;SDS011;858;53.190;8.596;2023-04-15T13:07:29;50.30;;;30.55;;
1721;SDS011;858;53.190;8.596;2023-04-15T13:09:55;54.90;;;33.38;;
1721;SDS011;858;53.190;8.596;2023-04-15T13:12:22;52.88;;;33.53;;
1721;SDS011;858;53.190;8.596;2023-04-15T13:14:48;57.33;;;36.38;;
1721;SDS011;858;53.190;8.596;2023-04-15T13:17:15;55.53;;;35.65;;
1721;SDS011;858;53.190;8.596;2023-04-15T13:19:45;59.07;;;36.40;;
1721;SDS011;858;53.190;8.596;2023-04-15T13:22:12;58.00;;;37.20;;
1721;SDS011;858;53.190;8.596;2023-04-15T13:24:39;61.08;;;38.30;;
1721;SDS011;858;53.190;8.596;2023-04-15T13:27:06;61.38;;;38.70;;
1721;SDS011;858;53.190;8.596;2023-04-15T13:29:32;62.40;;;38.67;;
1721;SDS011;858;53.190;8.596;2023-04-15T13:31:59;62.80;;;39.97;;
1721;SDS011;858;53.190;8.596;2023-04-15T13:34:25;66.32;;;41.88;;
1721;SDS011;858;53.190;8.596;2023-04-15T13:36:53;61.88;;;40.97;;
1721;SDS011;858;53.190;8.596;2023-04-15T13:39:20;60.13;;;41.47;;
1721;SDS011;858;53.190;8.596;2023-04-15T13:41:47;58.47;;;40.40;;
1721;SDS011;858;53.190;8.596;2023-04-15T13:44:14;53.70;;;38.13;;
1721;SDS011;858;53.190;8.596;2023-04-15T13:46:41;48.60;;;35.15;;
1721;SDS011;858;53.190;8.596;2023-04-15T13:49:10;46.22;;;35.25;;
1721;SDS011;858;53.190;8.596;2023-04-15T13:51:36;48.03;;;34.47;;
1721;SDS011;858;53.190;8.596;2023-04-15T13:54:04;49.70;;;35.50;;
1721;SDS011;858;53.190;8.596;2023-04-15T13:56:30;49.38;;;35.30;;
1721;SDS011;858;53.190;8.596;2023-04-15T13:58:57;52.90;;;38.25;;
1721;SDS011;858;53.190;8.596;2023-04-15T14:01:26;51.40;;;36.88;;
1721;SDS011;858;53.190;8.596;2023-04-15T14:03:52;52.53;;;38.25;;
1721;SDS011;858;53.190;8.596;2023-04-15T14:06:18;52.95;;;38.13;;
1721;SDS011;858;53.190;8.596;2023-04-15T14:08:45;52.53;;;38.63;;
1721;SDS011;858;53.190;8.596;2023-04-15T14:11:13;56.05;;;39.67;;
1721;SDS011;858;53.190;8.596;2023-04-15T14:13:39;51.92;;;39.63;;
1721;SDS011;858;53.190;8.596;2023-04-15T14:16:05;54.70;;;38.83;;
1721;SDS011;858;53.190;8.596;2023-04-15T14:18:32;50.55;;;38.38;;
1721;SDS011;858;53.190;8.596;2023-04-15T14:20:58;51.00;;;37.00;;
1721;SDS011;858;53.190;8.596;2023-04-15T14:23:25;49.97;;;37.53;;
1721;SDS011;858;53.190;8.596;2023-04-15T14:25:51;48.58;;;37.05;;
1721;SDS011;858;53.190;8.596;2023-04-15T14:28:19;48.13;;;35.67;;
1721;SDS011;858;53.190;8.596;2023-04-15T14:30:46;47.55;;;35.80;;
1721;SDS011;858;53.190;8.596;2023-04-15T14:33:12;50.05;;;35.25;;
1721;SDS011;858;53.190;8.596;2023-04-15T14:35:40;50.83;;;37.15;;
1721;SDS011;858;53.190;8.596;2023-04-15T14:38:06;50.70;;;38.10;;
1721;SDS011;858;53.190;8.596;2023-04-15T14:40:35;44.45;;;35.65;;
1721;SDS011;858;53.190;8.596;2023-04-15T14:43:01;44.70;;;36.47;;
1721;SDS011;858;53.190;8.596;2023-04-15T14:45:36;48.40;;;36.65;;
1721;SDS011;858;53.190;8.596;2023-04-15T14:48:02;49.58;;;37.95;;
1721;SDS011;858;53.190;8.596;2023-04-15T14:50:30;51.50;;;38.90;;
1721;SDS011;858;53.190;8.596;2023-04-15T14:52:57;52.80;;;38.47;;
1721;SDS011;858;53.190;8.596;2023-04-15T14:55:23;53.72;;;40.92;;
1721;SDS011;858;53.190;8.596;2023-04-15T14:57:49;50.25;;;38.95;;
1721;SDS011;858;53.190;8.596;2023-04-15T15:00:16;54.45;;;40.20;;
1721;SDS011;858;53.190;8.596;2023-04-15T15:02:44;51.58;;;39.08;;
1721;SDS011;858;53.190;8.596;2023-04-15T15:05:11;52.28;;;40.58;;
1721;SDS011;858;53.190;8.596;2023-04-15T15:07:37;51.50;;;39.75;;
1721;SDS011;858;53.190;8.596;2023-04-15T15:10:05;51.00;;;39.55;;
1721;SDS011;858;53.190;8.596;2023-04-15T15:12:31;48.92;;;38.55;;
1721;SDS011;858;53.190;8.596;2023-04-15T15:14:58;47.72;;;37.45;;